Time;durP1;ratioP1;P1;durP2;ratioP2;P2;SDS_P1;SDS_P2;PMS_P1;PMS_P2;Temp;Humidity;BMP_temperature;BMP_pressure;BME280_temperature;BME280_humidity;BME280_pressure;Samples;Min_cycle;Max_cycle;Signal;HPM_P1;HPM_P2
2022/01/07 00:01:19;;;;;;;14.90;12.07;;;;;;;5.35;100.00;99312.56;5046075;28;20573;-66
2022/01/07 00:03:46;;;;;;;14.07;10.97;;;;;;;5.24;100.00;99294.88;5041070;28;20581;-66
2022/01/07 00:06:13;;;;;;;17.90;12.17;;;;;;;5.28;100.00;99297.38;5050031;28;20197;-66
2022/01/07 00:08:40;;;;;;;14.47;11.60;;;;;;;5.40;100.00;99313.34;5047534;28;20660;-66
2022/01/07 00:11:06;;;;;;;18.60;12.40;;;;;;;5.43;100.00;99324.31;5042703;28;20201;-66
2022/01/07 00:13:33;;;;;;;16.67;12.03;;;;;;;5.44;100.00;99322.63;5040894;28;20203;-66
2022/01/07 00:16:00;;;;;;;17.73;12.03;;;;;;;5.35;100.00;99313.41;5051466;28;20785;-66
2022/01/07 00:18:28;;;;;;;11.03;9.90;;;;;;;5.44;100.00;99325.16;5041590;28;20215;-66
2022/01/07 00:20:56;;;;;;;14.90;10.50;;;;;;;5.46;100.00;99338.72;5044939;28;20608;-66
2022/01/07 00:23:23;;;;;;;11.30;10.17;;;;;;;5.44;100.00;99337.88;5046295;28;20193;-66
2022/01/07 00:25:50;;;;;;;17.67;10.70;;;;;;;5.43;100.00;99331.13;5043298;28;20200;-65
2022/01/07 00:28:18;;;;;;;11.23;10.03;;;;;;;5.47;100.00;99338.69;5046992;28;20672;-66
2022/01/07 00:30:45;;;;;;;14.77;9.90;;;;;;;5.39;100.00;99334.56;5049393;28;20197;-66
2022/01/07 00:33:12;;;;;;;13.40;10.50;;;;;;;5.46;100.00;99347.16;5050507;28;20582;-65
2022/01/07 00:35:40;;;;;;;11.03;9.97;;;;;;;5.44;100.00;99348.03;5050027;28;20197;-66
2022/01/07 00:38:07;;;;;;;14.73;10.23;;;;;;;5.39;100.00;99349.81;5043944;28;20196;-66
2022/01/07 00:40:34;;;;;;;10.67;9.57;;;;;;;5.43;100.00;99352.28;5040448;28;20209;-66
2022/01/07 00:43:01;;;;;;;10.03;8.90;;;;;;;5.41;100.00;99363.31;5046211;28;20676;-66
2022/01/07 00:45:29;;;;;;;10.70;9.10;;;;;;;5.34;100.00;99356.63;5050341;28;20588;-66
2022/01/07 00:47:57;;;;;;;15.50;8.70;;;;;;;5.28;100.00;99367.69;5043414;28;20200;-66
2022/01/07 00:50:26;;;;;;;10.57;9.00;;;;;;;5.18;100.00;99359.31;5044861;28;20289;-66
2022/01/07 00:52:54;;;;;;;11.43;9.40;;;;;;;5.24;100.00;99371.97;5049307;28;20205;-66
2022/01/07 00:55:22;;;;;;;11.80;9.20;;;;;;;5.24;100.00;99382.13;5040192;28;20204;-66
2022/01/07 00:57:49;;;;;;;15.77;9.17;;;;;;;5.22;100.00;99381.31;5043398;28;20200;-65
2022/01/07 01:00:19;;;;;;;13.00;9.90;;;;;;;5.21;100.00;99386.38;5038368;28;20244;-66
2022/01/07 01:02:47;;;;;;;9.67;8.73;;;;;;;5.16;100.00;99378.81;5044954;28;20223;-66
2022/01/07 01:05:15;;;;;;;10.77;8.87;;;;;;;5.09;100.00;99372.09;5048457;28;20192;-66
2022/01/07 01:07:43;;;;;;;10.93;9.17;;;;;;;5.09;100.00;99382.28;5045535;28;20197;-66
2022/01/07 01:10:13;;;;;;;14.60;9.17;;;;;;;5.12;100.00;99394.09;5044083;28;20207;-66
2022/01/07 01:12:43;;;;;;;10.80;8.73;;;;;;;5.10;100.00;99394.13;5049209;28;20208;-66
2022/01/07 01:15:12;;;;;;;11.63;9.53;;;;;;;5.10;100.00;99391.59;5043557;28;20211;-66
2022/01/07 01:17:39;;;;;;;10.90;9.73;;;;;;;5.01;100.00;99384.00;5031058;28;20201;-66
2022/01/07 01:20:10;;;;;;;10.10;8.73;;;;;;;5.11;100.00;99394.94;5033072;28;20225;-66
2022/01/07 01:22:37;;;;;;;16.83;9.23;;;;;;;5.13;100.00;99399.19;5042957;28;20560;-66
2022/01/07 01:25:05;;;;;;;9.47;8.43;;;;;;;5.15;100.00;99402.53;5036211;28;20687;-66
2022/01/07 01:27:33;;;;;;;12.00;8.83;;;;;;;5.11;100.00;99398.31;5038131;28;20196;-66
2022/01/07 01:30:02;;;;;;;9.97;8.03;;;;;;;5.17;100.00;99405.91;5031263;28;20209;-66
2022/01/07 01:32:29;;;;;;;11.93;8.83;;;;;;;5.18;100.00;99410.13;5031545;28;20206;-65
2022/01/07 01:34:56;;;;;;;11.77;9.00;;;;;;;5.22;100.00;99414.34;5039313;28;20292;-66
2022/01/07 01:37:23;;;;;;;10.03;9.03;;;;;;;5.13;100.00;99400.88;5034495;28;20205;-66
2022/01/07 01:39:50;;;;;;;9.77;8.73;;;;;;;5.19;100.00;99419.44;5033785;28;20217;-66
2022/01/07 01:42:17;;;;;;;10.17;9.17;;;;;;;5.18;100.00;99427.91;5039659;28;20211;-65
2022/01/07 01:44:45;;;;;;;9.50;8.60;;;;;;;5.17;100.00;99423.69;5042687;28;20205;-66
2022/01/07 01:47:13;;;;;;;8.97;8.03;;;;;;;5.16;100.00;99429.63;5047131;28;20209;-66
2022/01/07 01:49:40;;;;;;;13.50;9.30;;;;;;;5.13;100.00;99424.59;5049118;28;20205;-66
2022/01/07 01:52:07;;;;;;;9.77;8.77;;;;;;;5.20;100.00;99423.66;5046385;28;20288;-66
2022/01/07 01:54:34;;;;;;;10.27;9.03;;;;;;;5.22;100.00;99434.66;5041177;28;20211;-66
2022/01/07 01:57:01;;;;;;;9.33;8.53;;;;;;;5.21;100.00;99427.03;5041232;28;20703;-65
2022/01/07 01:59:30;;;;;;;12.30;9.57;;;;;;;5.11;100.00;99411.03;5033918;28;20209;-65
2022/01/07 02:01:59;;;;;;;11.17;9.17;;;;;;;5.12;100.00;99434.75;5043672;28;20201;-66
2022/01/07 02:04:26;;;;;;;10.97;9.30;;;;;;;5.15;100.00;99438.13;5047931;28;20193;-66
2022/01/07 02:06:54;;;;;;;10.40;9.33;;;;;;;5.16;100.00;99444.88;5049281;28;20199;-65
2022/01/07 02:09:26;;;;;;;8.63;7.70;;;;;;;5.13;100.00;99439.84;5048849;28;20201;-66
2022/01/07 02:11:53;;;;;;;8.80;7.90;;;;;;;5.13;100.00;99439.84;5044640;28;20227;-66
2022/01/07 02:14:20;;;;;;;7.93;7.30;;;;;;;5.09;100.00;99433.09;5048986;28;20207;-66
2022/01/07 02:16:47;;;;;;;10.03;8.60;;;;;;;5.15;100.00;99438.13;5043172;28;20588;-66
2022/01/07 02:19:15;;;;;;;13.37;7.67;;;;;;;5.12;100.00;99443.22;5042828;28;20240;-66
2022/01/07 02:21:44;;;;;;;9.57;8.57;;;;;;;5.00;100.00;99432.31;5040081;28;20223;-65
2022/01/07 02:24:10;;;;;;;10.17;7.97;;;;;;;5.10;100.00;99434.78;5048436;28;20200;-65
2022/01/07 02:26:37;;;;;;;8.00;7.03;;;;;;;5.09;100.00;99443.25;5039784;28;20213;-66
2022/01/07 02:29:05;;;;;;;8.37;7.53;;;;;;;5.10;100.00;99439.84;5044348;28;20223;-66
2022/01/07 02:31:32;;;;;;;9.33;7.80;;;;;;;5.09;100.00;99443.25;5040989;28;20205;-65
2022/01/07 02:33:59;;;;;;;8.80;7.23;;;;;;;4.92;100.00;99423.88;5039131;28;20203;-66
2022/01/07 02:36:26;;;;;;;8.90;8.10;;;;;;;4.94;100.00;99433.22;5041884;28;20581;-66
2022/01/07 02:38:54;;;;;;;8.97;8.27;;;;;;;5.06;100.00;99453.44;5035619;28;20208;-66
2022/01/07 02:41:23;;;;;;;11.83;8.60;;;;;;;5.07;100.00;99456.81;5042803;28;20212;-65
2022/01/07 02:43:50;;;;;;;11.60;8.60;;;;;;;4.95;100.00;99442.50;5052805;28;20208;-66
2022/01/07 02:46:17;;;;;;;12.30;8.47;;;;;;;5.07;100.00;99462.72;5052446;28;20203;-66
2022/01/07 02:48:44;;;;;;;10.03;7.47;;;;;;;5.09;100.00;99453.41;5048585;28;20581;-66
2022/01/07 02:51:11;;;;;;;9.60;8.67;;;;;;;5.08;100.00;99461.88;5039432;28;20201;-66
2022/01/07 02:53:38;;;;;;;9.17;8.33;;;;;;;5.07;100.00;99467.81;5042964;28;20200;-66
2022/01/07 02:56:06;;;;;;;7.83;7.03;;;;;;;5.04;100.00;99465.28;5046663;28;20609;-66
2022/01/07 02:58:33;;;;;;;9.23;7.97;;;;;;;5.07;100.00;99466.97;5048905;28;20204;-66
2022/01/07 03:01:00;;;;;;;9.13;8.33;;;;;;;5.03;100.00;99468.69;5042712;28;20221;-66
2022/01/07 03:03:27;;;;;;;9.20;8.30;;;;;;;5.03;100.00;99473.78;5046856;28;20204;-66
2022/01/07 03:05:54;;;;;;;8.43;7.70;;;;;;;5.01;100.00;99480.53;5045316;28;20205;-66
2022/01/07 03:08:21;;;;;;;9.97;8.63;;;;;;;5.02;100.00;99478.84;5039565;28;20727;-66
2022/01/07 03:10:48;;;;;;;8.07;7.27;;;;;;;4.99;100.00;99482.25;5043583;28;20204;-66
2022/01/07 03:13:16;;;;;;;9.73;7.60;;;;;;;5.04;100.00;99485.59;5046244;28;20298;-66
2022/01/07 03:15:43;;;;;;;9.77;7.37;;;;;;;5.07;100.00;99494.94;5034689;28;20224;-65
2022/01/07 03:18:10;;;;;;;9.77;8.37;;;;;;;4.95;100.00;99480.59;5038272;28;20702;-66
2022/01/07 03:20:39;;;;;;;8.70;7.80;;;;;;;5.09;100.00;99499.13;5037024;28;20232;-66
2022/01/07 03:23:07;;;;;;;9.77;8.80;;;;;;;5.05;100.00;99497.47;5049598;28;20196;-66
2022/01/07 03:25:34;;;;;;;9.87;8.83;;;;;;;4.92;100.00;99490.78;5036431;28;20208;-66
2022/01/07 03:28:01;;;;;;;9.23;7.87;;;;;;;4.93;100.00;99496.69;5033833;28;20202;-66
2022/01/07 03:30:30;;;;;;;9.23;7.93;;;;;;;5.01;100.00;99510.22;5041326;28;20694;-66
2022/01/07 03:32:57;;;;;;;8.97;8.07;;;;;;;5.02;100.00;99517.81;5044173;28;20200;-65
2022/01/07 03:35:24;;;;;;;10.10;8.27;;;;;;;5.07;100.00;99523.69;5035711;28;20204;-66
2022/01/07 03:37:51;;;;;;;8.70;7.80;;;;;;;4.99;100.00;99522.06;5042515;28;20207;-66
2022/01/07 03:40:20;;;;;;;8.63;7.80;;;;;;;4.94;100.00;99524.66;5043759;28;20227;-65
2022/01/07 03:42:48;;;;;;;9.07;8.17;;;;;;;4.97;100.00;99526.31;5051789;28;20715;-66
2022/01/07 03:45:16;;;;;;;10.40;7.83;;;;;;;4.92;100.00;99526.34;5044182;28;20197;-66
2022/01/07 03:47:44;;;;;;;8.33;7.50;;;;;;;4.90;100.00;99533.13;5045539;28;20745;-66
2022/01/07 03:50:13;;;;;;;9.77;8.40;;;;;;;4.88;100.00;99527.19;5034466;28;20614;-66
2022/01/07 03:52:41;;;;;;;11.73;8.00;;;;;;;4.85;100.00;99539.91;5042017;28;20205;-66
2022/01/07 03:55:13;;;;;;;8.53;7.83;;;;;;;4.86;100.00;99536.53;5049042;28;20196;-66
2022/01/07 03:57:41;;;;;;;8.90;8.20;;;;;;;4.82;100.00;99534.84;5041248;28;20665;-66
2022/01/07 04:00:09;;;;;;;8.57;7.70;;;;;;;4.91;100.00;99537.34;5043384;28;20199;-66
2022/01/07 04:02:36;;;;;;;10.37;8.17;;;;;;;4.89;100.00;99544.13;5037582;28;20586;-65
2022/01/07 04:05:06;;;;;;;9.17;8.23;;;;;;;4.88;100.00;99555.13;5042873;28;20664;-66
2022/01/07 04:07:33;;;;;;;7.97;7.17;;;;;;;4.90;100.00;99553.44;5046804;28;20236;-66
2022/01/07 04:10:00;;;;;;;11.93;8.80;;;;;;;4.91;100.00;99555.13;5041378;28;20209;-66
2022/01/07 04:12:27;;;;;;;9.27;7.10;;;;;;;4.93;100.00;99565.28;5046431;28;20202;-66
2022/01/07 04:15:05;;;;;;;9.63;7.60;;;;;;;4.89;100.00;99559.38;5045102;28;20691;-66
2022/01/07 04:17:32;;;;;;;11.23;8.40;;;;;;;4.96;100.00;99571.19;5043358;28;20232;-65
2022/01/07 04:19:59;;;;;;;9.10;8.23;;;;;;;4.96;100.00;99573.75;5048128;28;20232;-66
2022/01/07 04:22:28;;;;;;;10.00;8.33;;;;;;;4.92;100.00;99571.22;5048787;28;20266;-66
2022/01/07 04:24:55;;;;;;;9.60;8.47;;;;;;;4.97;100.00;99575.44;5049875;28;20656;-66
2022/01/07 04:27:22;;;;;;;11.47;8.20;;;;;;;4.94;100.00;99567.84;5049741;28;20205;-65
2022/01/07 04:29:49;;;;;;;9.00;7.80;;;;;;;4.89;100.00;99567.00;5045553;28;20204;-65
2022/01/07 04:32:16;;;;;;;9.80;8.00;;;;;;;4.96;100.00;99578.81;5038505;28;20202;-65
2022/01/07 04:34:43;;;;;;;11.63;7.87;;;;;;;4.94;100.00;99578.00;5037643;28;20582;-66
2022/01/07 04:37:10;;;;;;;10.03;7.57;;;;;;;4.92;100.00;99589.84;5037021;28;20577;-65
2022/01/07 04:39:38;;;;;;;9.70;8.57;;;;;;;4.94;100.00;99584.75;5044316;28;20201;-66
2022/01/07 04:42:05;;;;;;;14.50;8.57;;;;;;;4.82;100.00;99575.47;5036571;28;20224;-66
2022/01/07 04:44:32;;;;;;;9.10;8.30;;;;;;;4.78;100.00;99574.66;5033409;28;20205;-66
2022/01/07 04:46:59;;;;;;;8.53;7.63;;;;;;;4.86;100.00;99596.63;5043327;28;20640;-66
2022/01/07 04:49:26;;;;;;;7.83;7.10;;;;;;;4.87;100.00;99599.19;5036880;28;20212;-66
2022/01/07 04:51:53;;;;;;;8.73;7.93;;;;;;;4.90;100.00;99604.25;5035351;28;20210;-66
2022/01/07 04:54:20;;;;;;;8.90;8.17;;;;;;;4.87;100.00;99609.34;5032855;28;20202;-66
2022/01/07 04:56:48;;;;;;;9.13;7.43;;;;;;;4.89;100.00;99609.31;5044190;28;20927;-66
2022/01/07 04:59:15;;;;;;;8.50;7.53;;;;;;;4.88;100.00;99616.09;5046198;28;20219;-66
2022/01/07 05:01:42;;;;;;;12.17;8.43;;;;;;;4.83;100.00;99616.97;5035461;28;20221;-66
2022/01/07 05:04:09;;;;;;;9.70;7.70;;;;;;;4.84;100.00;99622.06;5045914;28;20232;-66
2022/01/07 05:06:45;;;;;;;9.17;7.43;;;;;;;4.73;100.00;99611.94;5040560;28;20205;-66
2022/01/07 05:09:13;;;;;;;8.87;7.33;;;;;;;4.80;100.00;99622.06;5036562;28;20233;-66
2022/01/07 05:11:41;;;;;;;10.10;9.07;;;;;;;4.69;100.00;99609.41;5044469;28;20288;-65
2022/01/07 05:14:09;;;;;;;8.10;7.40;;;;;;;4.71;100.00;99617.88;5040144;28;20568;-66
2022/01/07 05:16:36;;;;;;;10.33;8.23;;;;;;;4.81;100.00;99629.69;5039275;28;20577;-66
2022/01/07 05:19:03;;;;;;;8.57;7.73;;;;;;;4.75;100.00;99637.31;5041992;28;20270;-66
2022/01/07 05:21:30;;;;;;;12.33;8.33;;;;;;;4.75;100.00;99637.31;5039874;28;20224;-66
2022/01/07 05:23:57;;;;;;;10.90;8.67;;;;;;;4.59;100.00;99622.97;5044130;28;20668;-66
2022/01/07 05:26:24;;;;;;;9.17;8.00;;;;;;;4.72;100.00;99652.56;5044075;28;20215;-66
2022/01/07 05:28:51;;;;;;;9.80;8.80;;;;;;;4.71;100.00;99655.97;5035475;28;20697;-66
2022/01/07 05:31:22;;;;;;;13.40;8.93;;;;;;;4.63;100.00;99634.81;5045582;28;20630;-66
2022/01/07 05:33:49;;;;;;;9.47;8.47;;;;;;;4.71;100.00;99658.50;5040115;28;20221;-66
2022/01/07 05:36:16;;;;;;;8.90;8.07;;;;;;;4.74;100.00;99663.56;5040657;28;20193;-66
2022/01/07 05:38:44;;;;;;;12.60;8.97;;;;;;;4.80;100.00;99666.09;5040560;28;20204;-66
2022/01/07 05:41:11;;;;;;;9.37;8.47;;;;;;;4.76;100.00;99666.94;5047959;28;20212;-65
2022/01/07 05:43:38;;;;;;;9.43;8.43;;;;;;;4.79;100.00;99666.94;5033064;28;20220;-66
2022/01/07 05:46:05;;;;;;;10.77;8.70;;;;;;;4.72;100.00;99662.72;5040673;28;20205;-68
2022/01/07 05:48:33;;;;;;;7.80;7.23;;;;;;;4.74;100.00;99679.66;5039041;28;20212;-68
2022/01/07 05:51:00;;;;;;;9.60;8.67;;;;;;;4.65;100.00;99666.13;5037499;28;20616;-68
2022/01/07 05:53:27;;;;;;;11.27;9.37;;;;;;;4.69;100.00;99675.41;5044530;28;20201;-68
2022/01/07 05:55:54;;;;;;;13.73;8.73;;;;;;;4.67;100.00;99672.03;5035609;28;20197;-68
2022/01/07 05:58:21;;;;;;;9.97;8.20;;;;;;;4.56;100.00;99653.44;5042402;28;20212;-68
2022/01/07 06:00:48;;;;;;;9.03;8.20;;;;;;;4.57;100.00;99668.69;5040476;28;20201;-68
2022/01/07 06:03:15;;;;;;;13.40;9.50;;;;;;;4.65;100.00;99674.56;5044907;28;20211;-68
2022/01/07 06:05:43;;;;;;;9.80;8.90;;;;;;;4.68;100.00;99688.97;5048895;28;20226;-68
2022/01/07 06:08:10;;;;;;;12.80;8.00;;;;;;;4.68;100.00;99681.38;5034981;28;20707;-68
2022/01/07 06:10:37;;;;;;;9.13;8.23;;;;;;;4.72;100.00;99690.63;5044489;28;20630;-68
2022/01/07 06:13:04;;;;;;;10.43;8.37;;;;;;;4.70;100.00;99687.28;5039524;28;20576;-68
2022/01/07 06:15:30;;;;;;;10.87;8.63;;;;;;;4.74;100.00;99691.50;5039001;28;20201;-68
2022/01/07 06:17:59;;;;;;;11.47;9.07;;;;;;;4.73;100.00;99690.66;5042582;28;20204;-68
2022/01/07 06:20:27;;;;;;;11.37;8.93;;;;;;;4.78;100.00;99685.56;5052318;28;20279;-68
2022/01/07 06:22:55;;;;;;;11.03;8.70;;;;;;;4.78;100.00;99683.03;5053016;28;20304;-67
2022/01/07 06:25:22;;;;;;;10.93;8.43;;;;;;;4.78;100.00;99675.41;5052261;28;20209;-68
2022/01/07 06:27:49;;;;;;;11.47;8.03;;;;;;;4.78;100.00;99685.56;5049197;28;20264;-68
2022/01/07 06:30:16;;;;;;;9.70;8.10;;;;;;;4.75;100.00;99683.88;5052498;28;20576;-68
2022/01/07 06:32:43;;;;;;;11.70;8.20;;;;;;;4.72;100.00;99688.09;5039412;28;20201;-68
2022/01/07 06:35:10;;;;;;;8.10;7.30;;;;;;;4.72;100.00;99686.41;5037979;28;20268;-67
2022/01/07 06:37:37;;;;;;;7.90;7.27;;;;;;;4.79;100.00;99702.47;5048391;28;20285;-68
2022/01/07 06:40:07;;;;;;;7.73;7.03;;;;;;;4.76;100.00;99697.41;5051058;28;20288;-67
2022/01/07 06:42:35;;;;;;;11.93;8.13;;;;;;;4.89;100.00;99708.38;5044418;28;20220;-68
2022/01/07 06:45:02;;;;;;;8.70;7.67;;;;;;;4.93;100.00;99716.00;5046216;28;20201;-68
2022/01/07 06:47:29;;;;;;;9.33;8.40;;;;;;;4.99;100.00;99726.16;5037437;28;20205;-68
2022/01/07 06:49:56;;;;;;;10.23;8.27;;;;;;;5.00;100.00;99727.00;5043549;28;20209;-68
2022/01/07 06:52:23;;;;;;;11.13;9.07;;;;;;;5.07;100.00;99736.31;5040371;28;20558;-68
2022/01/07 06:54:50;;;;;;;10.43;9.07;;;;;;;5.11;100.00;99731.19;5040879;28;20203;-68
2022/01/07 06:57:18;;;;;;;9.27;8.33;;;;;;;5.17;100.00;99728.63;5043473;28;20592;-68
2022/01/07 06:59:45;;;;;;;13.30;7.77;;;;;;;5.23;100.00;99728.59;5046403;28;20201;-68
2022/01/07 07:02:12;;;;;;;14.93;7.93;;;;;;;5.20;100.00;99721.00;5043159;28;20734;-67
2022/01/07 07:04:39;;;;;;;18.47;9.53;;;;;;;5.29;100.00;99738.78;5039084;28;20252;-63
2022/01/07 07:07:06;;;;;;;9.10;8.10;;;;;;;5.35;100.00;99726.88;5043281;28;20703;-63
2022/01/07 07:09:34;;;;;;;8.70;7.90;;;;;;;5.26;100.00;99722.69;5040411;28;21562;-63
2022/01/07 07:12:00;;;;;;;13.17;9.10;;;;;;;5.37;100.00;99737.88;5044001;28;20197;-63
2022/01/07 07:14:29;;;;;;;13.53;9.77;;;;;;;5.38;100.00;99731.94;5043793;28;20208;-62
2022/01/07 07:16:56;;;;;;;11.50;9.07;;;;;;;5.42;100.00;99736.19;5040168;28;20215;-69
2022/01/07 07:19:24;;;;;;;11.03;8.80;;;;;;;5.47;100.00;99739.53;5047317;28;20224;-68
2022/01/07 07:21:52;;;;;;;12.47;8.50;;;;;;;5.52;100.00;99738.69;5043988;28;20783;-68
2022/01/07 07:24:18;;;;;;;10.90;8.87;;;;;;;5.56;100.00;99739.47;5042456;28;20232;-69
2022/01/07 07:26:45;;;;;;;10.27;8.20;;;;;;;5.55;100.00;99725.09;5042831;28;20213;-68
2022/01/07 07:29:12;;;;;;;8.70;7.67;;;;;;;5.62;100.00;99726.75;5038637;28;20216;-68
2022/01/07 07:31:44;;;;;;;12.43;8.57;;;;;;;5.66;100.00;99736.91;5046824;28;20199;-68
2022/01/07 07:34:33;;;;;;;9.13;8.23;;;;;;;5.73;100.00;99730.09;5037425;28;20858;-68
2022/01/07 07:37:01;;;;;;;8.20;7.50;;;;;;;5.78;100.00;99736.00;5039917;28;20224;-69
2022/01/07 07:39:27;;;;;;;10.70;7.40;;;;;;;5.72;100.00;99736.00;5042395;28;20661;-69
2022/01/07 07:41:55;;;;;;;9.03;8.10;;;;;;;5.78;100.00;99728.38;5044708;28;20613;-70
2022/01/07 07:44:21;;;;;;;21.63;12.13;;;;;;;5.84;100.00;99735.97;5045983;28;20212;-70
2022/01/07 07:46:51;;;;;;;44.00;21.90;;;;;;;5.88;100.00;99727.47;5046006;28;20212;-69
2022/01/07 07:49:18;;;;;;;26.87;16.17;;;;;;;5.93;100.00;99735.94;5045884;28;20255;-69
2022/01/07 07:51:46;;;;;;;17.27;12.93;;;;;;;5.92;100.00;99723.22;5043064;28;20201;-69
2022/01/07 07:54:13;;;;;;;9.53;8.37;;;;;;;6.05;100.00;99740.94;5039979;28;20676;-69
2022/01/07 07:56:40;;;;;;;8.27;7.43;;;;;;;6.10;100.00;99736.69;5038731;28;20208;-68
2022/01/07 07:59:07;;;;;;;7.80;7.17;;;;;;;6.12;100.00;99742.59;5044927;28;20733;-68
2022/01/07 08:01:36;;;;;;;7.40;6.30;;;;;;;6.22;100.00;99743.38;5044530;28;20229;-68
2022/01/07 08:04:04;;;;;;;7.37;6.87;;;;;;;6.27;100.00;99742.47;5044669;28;20206;-67
2022/01/07 08:06:31;;;;;;;8.10;7.27;;;;;;;6.34;100.00;99746.66;5041826;28;20619;-67
2022/01/07 08:08:58;;;;;;;7.17;6.50;;;;;;;6.41;100.00;99749.16;5037468;28;20209;-67
2022/01/07 08:11:30;;;;;;;6.83;6.33;;;;;;;6.47;100.00;99754.22;5036445;28;20207;-67
2022/01/07 08:16:41;;;;;;;8.23;7.63;;;;;;;6.70;100.00;99737.03;5042631;28;20211;-69
2022/01/07 08:19:10;;;;;;;7.90;7.10;;;;;;;6.76;100.00;99742.06;5046170;28;20212;-69
2022/01/07 08:21:36;;;;;;;7.40;6.70;;;;;;;6.92;100.00;99742.75;5039763;28;20706;-69
2022/01/07 08:24:04;;;;;;;14.43;8.63;;;;;;;7.04;100.00;99743.50;5042808;28;20664;-69
2022/01/07 08:26:31;;;;;;;7.37;6.83;;;;;;;7.10;100.00;99737.50;5047369;28;20201;-69
2022/01/07 08:29:02;;;;;;;8.23;7.47;;;;;;;7.23;100.00;99727.16;5043859;28;20205;-69
2022/01/07 08:37:00;;;;;;;4.87;4.57;;;;;;;7.46;100.00;99726.03;5041873;28;20271;-69
2022/01/07 08:39:27;;;;;;;4.67;4.37;;;;;;;7.66;100.00;99749.56;5044733;28;20208;-69
2022/01/07 08:41:54;;;;;;;4.83;4.00;;;;;;;7.80;100.00;99748.53;5039822;28;20225;-69
2022/01/07 08:44:22;;;;;;;5.37;4.93;;;;;;;7.95;100.00;99739.78;5045628;28;20266;-67
2022/01/07 08:46:49;;;;;;;4.63;4.40;;;;;;;8.06;100.00;99740.50;5037934;28;20205;-69
2022/01/07 08:49:18;;;;;;;5.93;5.53;;;;;;;8.11;100.00;99731.06;5038136;28;20950;-69
2022/01/07 08:51:45;;;;;;;9.67;6.63;;;;;;;8.15;100.00;99712.28;5038216;28;20197;-68
2022/01/07 08:54:12;;;;;;;8.00;7.20;;;;;;;8.39;100.00;99724.69;5037003;28;20283;-67
2022/01/07 08:56:39;;;;;;;6.70;6.20;;;;;;;8.38;100.00;99728.13;5042376;28;20201;-67
2022/01/07 08:59:06;;;;;;;6.67;6.20;;;;;;;8.47;100.00;99726.25;5038574;28;20715;-68
2022/01/07 09:01:33;;;;;;;5.83;5.33;;;;;;;8.48;99.93;99727.97;5040537;28;20232;-69
2022/01/07 09:04:00;;;;;;;5.77;5.20;;;;;;;8.40;98.42;99718.69;5045800;28;20205;-69
2022/01/07 09:06:28;;;;;;;6.90;6.40;;;;;;;8.49;97.85;99729.66;5039505;28;20207;-68
2022/01/07 09:08:55;;;;;;;6.03;5.63;;;;;;;8.44;97.75;99722.91;5040878;28;20209;-68
2022/01/07 09:11:22;;;;;;;6.90;6.20;;;;;;;8.45;97.30;99713.53;5038065;28;20283;-68
2022/01/07 09:13:51;;;;;;;6.47;6.07;;;;;;;8.49;98.40;99719.44;5042413;28;20209;-69
2022/01/07 09:16:18;;;;;;;14.37;5.27;;;;;;;8.46;98.82;99712.66;5039212;28;20337;-69
2022/01/07 09:18:45;;;;;;;5.73;5.33;;;;;;;8.55;97.16;99715.06;5044271;28;20251;-69
2022/01/07 09:21:12;;;;;;;6.40;5.87;;;;;;;8.63;98.55;99709.81;5040362;28;20228;-69
2022/01/07 09:23:41;;;;;;;5.67;5.27;;;;;;;8.61;97.97;99709.84;5038320;28;20669;-69
2022/01/07 09:26:09;;;;;;;20.40;6.53;;;;;;;8.67;98.02;99714.84;5041472;28;20205;-69
2022/01/07 09:28:36;;;;;;;6.40;5.90;;;;;;;8.69;98.39;99704.63;5034172;28;20201;-68
2022/01/07 09:31:03;;;;;;;7.80;5.87;;;;;;;8.72;98.48;99712.22;5039180;28;20204;-68
2022/01/07 09:33:29;;;;;;;7.40;6.90;;;;;;;8.74;98.08;99707.91;5040813;28;20258;-69
2022/01/07 09:35:56;;;;;;;11.87;6.20;;;;;;;8.81;97.74;99702.69;5044775;28;20754;-68
2022/01/07 09:38:25;;;;;;;6.43;5.93;;;;;;;8.88;98.06;99711.94;5035833;28;20201;-68
2022/01/07 09:40:53;;;;;;;6.07;5.47;;;;;;;8.92;97.75;99700.75;5042041;28;20360;-69
2022/01/07 09:43:20;;;;;;;6.47;5.97;;;;;;;8.97;98.19;99693.00;5043396;28;20242;-70
2022/01/07 09:45:47;;;;;;;7.40;6.80;;;;;;;9.03;97.66;99703.13;5039558;28;20209;-70
2022/01/07 09:48:14;;;;;;;20.40;7.70;;;;;;;9.04;98.08;99683.50;5036678;28;20215;-70
2022/01/07 09:50:40;;;;;;;9.73;7.47;;;;;;;9.19;97.44;99694.28;5044609;28;20250;-69
2022/01/07 09:53:09;;;;;;;6.37;5.97;;;;;;;9.25;96.76;99701.81;5041882;28;20250;-70
2022/01/07 09:55:36;;;;;;;7.43;6.83;;;;;;;9.35;96.96;99695.66;5041320;28;20208;-70
2022/01/07 09:58:05;;;;;;;9.63;7.77;;;;;;;9.31;95.90;99698.28;5032870;28;20205;-70
2022/01/07 10:00:34;;;;;;;7.73;6.27;;;;;;;9.32;94.86;99698.25;5040829;28;20204;-70
2022/01/07 10:03:02;;;;;;;7.13;6.50;;;;;;;9.31;94.86;99688.91;5036254;28;20300;-70
2022/01/07 10:05:30;;;;;;;7.70;7.10;;;;;;;9.43;95.05;99698.88;5043109;28;20208;-69
2022/01/07 10:07:57;;;;;;;7.27;6.73;;;;;;;9.47;95.96;99697.94;5035218;28;20677;-69
2022/01/07 10:10:27;;;;;;;6.37;5.97;;;;;;;9.52;96.35;99697.00;5033199;28;20763;-70
2022/01/07 10:12:59;;;;;;;6.80;6.30;;;;;;;9.64;96.73;99691.63;5041701;28;20266;-70
2022/01/07 10:15:29;;;;;;;5.80;5.30;;;;;;;9.73;95.38;99686.28;5046100;28;20200;-67
2022/01/07 10:17:58;;;;;;;6.03;5.50;;;;;;;9.82;95.94;99686.13;5032255;28;20263;-66
2022/01/07 10:20:28;;;;;;;5.77;5.27;;;;;;;9.86;94.40;99692.81;5044223;28;20228;-66
2022/01/07 10:22:57;;;;;;;6.23;5.83;;;;;;;9.78;93.73;99679.38;5046307;28;20216;-67
2022/01/07 10:25:27;;;;;;;9.27;6.73;;;;;;;9.86;94.53;99682.59;5042434;28;21671;-68
2022/01/07 10:28:00;;;;;;;6.60;6.17;;;;;;;9.94;95.24;99681.56;5036095;28;20319;-68
2022/01/07 10:30:34;;;;;;;6.60;6.00;;;;;;;9.97;94.34;99680.63;5040509;28;20651;-68
2022/01/07 10:33:01;;;;;;;6.60;6.00;;;;;;;10.01;94.33;99685.66;5041042;28;20205;-68
2022/01/07 10:35:28;;;;;;;7.50;6.83;;;;;;;10.05;93.68;99678.72;5039161;28;20608;-67
2022/01/07 10:37:57;;;;;;;7.80;7.10;;;;;;;10.03;94.90;99662.56;5040344;28;20238;-68
2022/01/07 10:40:31;;;;;;;7.20;6.70;;;;;;;10.17;94.58;99668.25;5038245;28;20256;-68
2022/01/07 10:43:12;;;;;;;9.30;7.57;;;;;;;10.22;95.47;99660.41;5045227;28;20232;-68
2022/01/07 10:45:42;;;;;;;8.93;7.10;;;;;;;10.26;95.90;99662.88;5038467;28;20201;-68
2022/01/07 10:48:09;;;;;;;5.83;5.33;;;;;;;10.26;94.00;99657.75;5035091;28;20640;-67
2022/01/07 10:50:41;;;;;;;6.70;6.10;;;;;;;10.31;93.29;99658.47;5042086;28;20275;-67
2022/01/07 10:53:19;;;;;;;6.70;6.20;;;;;;;10.39;93.03;99664.25;5038440;28;20208;-67
2022/01/07 10:56:14;;;;;;;9.40;7.03;;;;;;;10.39;94.04;99656.56;5037769;28;20201;-68
2022/01/07 10:58:58;;;;;;;11.00;8.57;;;;;;;10.29;92.33;99657.69;5009240;28;20205;-68
2022/01/07 11:01:39;;;;;;;6.50;5.90;;;;;;;10.35;90.97;99666.94;5046209;28;20691;-68
2022/01/07 11:04:08;;;;;;;6.33;5.90;;;;;;;10.35;91.45;99667.78;5044719;28;20255;-68
2022/01/07 11:06:36;;;;;;;8.83;7.87;;;;;;;10.32;92.47;99667.84;5043875;28;20197;-68
2022/01/07 11:09:06;;;;;;;6.90;6.30;;;;;;;10.34;92.86;99658.38;5044502;28;20204;-68
2022/01/07 11:11:34;;;;;;;6.30;5.90;;;;;;;10.34;92.88;99658.38;5037425;28;20287;-68
2022/01/07 11:14:07;;;;;;;13.70;9.03;;;;;;;10.20;92.73;99663.03;5043595;28;20197;-68
2022/01/07 11:16:38;;;;;;;7.27;6.67;;;;;;;10.10;92.28;99663.25;5038539;28;20271;-68
2022/01/07 11:19:06;;;;;;;6.63;6.13;;;;;;;10.08;92.47;99665.84;5043350;28;20231;-68
2022/01/07 11:21:34;;;;;;;10.00;7.73;;;;;;;10.19;92.67;99661.34;5042052;28;20219;-67
2022/01/07 11:24:36;;;;;;;7.60;7.00;;;;;;;10.20;94.17;99660.47;5046365;28;20282;-68
2022/01/07 11:27:05;;;;;;;16.87;9.07;;;;;;;10.24;93.41;99656.94;5038070;28;20698;-68
2022/01/07 11:29:32;;;;;;;13.00;10.47;;;;;;;10.26;93.17;99668.00;5037862;28;20275;-68
2022/01/07 11:32:32;;;;;;;8.60;7.77;;;;;;;10.30;93.86;99669.63;5038035;28;20205;-68
2022/01/07 11:35:48;;;;;;;11.00;7.60;;;;;;;10.15;94.30;99662.28;5040023;28;20194;-68
2022/01/07 11:38:39;;;;;;;7.77;7.07;;;;;;;10.12;94.52;99664.03;5042176;28;20202;-68
2022/01/07 11:41:09;;;;;;;45.63;14.53;;;;;;;10.12;94.54;99654.66;5041118;28;20201;-68
2022/01/07 11:43:42;;;;;;;35.20;13.67;;;;;;;10.12;94.22;99661.47;5038463;28;20232;-68
2022/01/07 11:46:28;;;;;;;31.87;12.17;;;;;;;10.09;95.09;99654.72;5038806;28;20204;-68